createdAt,value
2022-09-10T00:01:42.636Z,98054.47
2022-09-10T00:03:48.845Z,98056.88
2022-09-10T00:05:53.801Z,98054.16
2022-09-10T00:08:01.714Z,98052.22
2022-09-10T00:10:06.828Z,98046.97
2022-09-10T00:12:11.323Z,98036.78
2022-09-10T00:14:19.215Z,98038.59
2022-09-10T00:16:24.175Z,98043.09
2022-09-10T00:18:29.577Z,98041.53
2022-09-10T00:20:34.316Z,98049.56
2022-09-10T00:22:39.366Z,98041.97
2022-09-10T00:24:46.709Z,98049.03
2022-09-10T00:26:51.503Z,98047.25
2022-09-10T00:28:59.583Z,98047.47
2022-09-10T00:31:07.753Z,98048.50
2022-09-10T00:33:12.768Z,98052.31
2022-09-10T00:35:17.685Z,98052.53
2022-09-10T00:37:22.697Z,98052.41
2022-09-10T00:39:27.551Z,98047.06
2022-09-10T00:41:36.857Z,98046.00
2022-09-10T00:43:51.472Z,98043.38
2022-09-10T00:46:00.422Z,98047.91
2022-09-10T00:48:11.620Z,98040.00
2022-09-10T00:50:23.775Z,98047.78
2022-09-10T00:52:29.503Z,98048.00
2022-09-10T00:54:37.235Z,98044.53
2022-09-10T00:56:45.468Z,98040.31
2022-09-10T00:58:50.794Z,98048.34
2022-09-10T01:00:59.163Z,98045.72
2022-09-10T01:03:06.268Z,98038.13
2022-09-10T01:05:13.199Z,98045.28
2022-09-10T01:07:19.154Z,98041.81
2022-09-10T01:09:26.691Z,98040.78
2022-09-10T01:11:45.365Z,98043.63
2022-09-10T01:14:09.876Z,98043.63
2022-09-10T01:16:25.178Z,98038.25
2022-09-10T01:18:36.830Z,98038.97
2022-09-10T01:20:57.049Z,98030.88
2022-09-10T01:23:24.487Z,98036.03
2022-09-10T01:25:39.819Z,98035.19
2022-09-10T01:27:51.768Z,98036.03
2022-09-10T01:30:03.467Z,98029.19
2022-09-10T01:32:15.481Z,98029.50
2022-09-10T01:34:30.614Z,98030.59
2022-09-10T01:36:41.842Z,98025.44
2022-09-10T01:38:47.111Z,98025.53
2022-09-10T01:40:52.960Z,98036.56
2022-09-10T01:43:05.900Z,98027.41
2022-09-10T01:45:16.723Z,98035.19
2022-09-10T01:47:38.620Z,98034.00
2022-09-10T01:49:58.234Z,98029.50
2022-09-10T01:52:25.609Z,98030.22
2022-09-10T01:54:47.255Z,98031.06
2022-09-10T01:56:56.930Z,98028.44
2022-09-10T01:59:12.382Z,98026.75
2022-09-10T02:01:26.249Z,98020.56
2022-09-10T02:03:33.201Z,98021.59
2022-09-10T02:05:41.873Z,98023.50
2022-09-10T02:07:51.169Z,98025.38
2022-09-10T02:09:57.615Z,98021.44
2022-09-10T02:12:04.542Z,98009.44
2022-09-10T02:14:32.877Z,98021.19
2022-09-10T02:16:59.362Z,98010.91
2022-09-10T02:19:05.431Z,98009.09
2022-09-10T02:21:10.336Z,98013.44
2022-09-10T02:23:18.478Z,98006.47
2022-09-10T02:25:23.956Z,98006.47
2022-09-10T02:27:33.631Z,98003.84
2022-09-10T02:29:41.408Z,98005.78
2022-09-10T02:31:47.548Z,98005.25
2022-09-10T02:33:54.640Z,98004.28
2022-09-10T02:36:02.301Z,98003.97
2022-09-10T02:38:09.903Z,98000.28
2022-09-10T02:40:15.327Z,98009.75
2022-09-10T02:42:20.134Z,98008.06
2022-09-10T02:44:27.289Z,98013.66
2022-09-10T02:46:34.766Z,98019.13
2022-09-10T02:48:40.076Z,98023.78
2022-09-10T02:50:48.448Z,98032.59
2022-09-10T02:52:54.095Z,98026.09
2022-09-10T02:54:59.183Z,98028.19
2022-09-10T02:57:05.152Z,98020.19
2022-09-10T02:59:09.923Z,98022.38
2022-09-10T03:01:17.976Z,98019.44
2022-09-10T03:03:31.063Z,98021.63
2022-09-10T03:05:38.635Z,98016.69
2022-09-10T03:07:43.844Z,98019.97
2022-09-10T03:09:49.681Z,98021.41
2022-09-10T03:11:54.385Z,98018.16
2022-09-10T03:13:59.556Z,98016.69
2022-09-10T03:16:07.029Z,98016.50
2022-09-10T03:18:12.941Z,98018.03
2022-09-10T03:20:23.052Z,98017.97
2022-09-10T03:22:28.514Z,98019.63
2022-09-10T03:24:36.020Z,98023.09
2022-09-10T03:26:40.840Z,98021.41
2022-09-10T03:28:47.290Z,98018.69
2022-09-10T03:30:53.791Z,98023.00
2022-09-10T03:32:59.097Z,98017.84
2022-09-10T03:35:03.846Z,98021.31
2022-09-10T03:37:12.233Z,98017.75
2022-09-10T03:39:18.555Z,98015.19
2022-09-10T03:41:23.410Z,98015.41
2022-09-10T03:43:29.769Z,98014.59
2022-09-10T03:45:35.374Z,98014.59
2022-09-10T03:47:41.197Z,98014.06
2022-09-10T03:49:46.089Z,98017.13
2022-09-10T03:51:51.510Z,98015.88
2022-09-10T03:53:59.802Z,98021.19
2022-09-10T03:56:05.304Z,98019.47
2022-09-10T03:58:11.437Z,98022.72
2022-09-10T04:00:17.891Z,98017.16
2022-09-10T04:02:26.199Z,98012.75
2022-09-10T04:04:31.978Z,98020.00
2022-09-10T04:06:37.718Z,98021.06
2022-09-10T04:08:43.478Z,98021.06
2022-09-10T04:10:52.650Z,98017.47
2022-09-10T04:12:57.468Z,98018.53
2022-09-10T04:15:04.544Z,98022.00
2022-09-10T04:17:09.972Z,98019.16
2022-09-10T04:19:14.807Z,98028.84
2022-09-10T04:21:20.349Z,98022.63
2022-09-10T04:23:27.613Z,98026.72
2022-09-10T04:25:32.512Z,98024.63
2022-09-10T04:27:40.501Z,98027.03
2022-09-10T04:29:45.959Z,98027.84
2022-09-10T04:31:50.879Z,98026.28
2022-09-10T04:33:56.973Z,98029.03
2022-09-10T04:36:04.822Z,98024.53
2022-09-10T04:38:11.151Z,98021.16
2022-09-10T04:40:17.970Z,98026.63
2022-09-10T04:42:22.705Z,98024.22
2022-09-10T04:44:32.119Z,98027.56
2022-09-10T04:46:37.269Z,98031.88
2022-09-10T04:48:46.401Z,98028.28
2022-09-10T04:51:15.318Z,98030.69
2022-09-10T04:53:22.636Z,98030.81
2022-09-10T04:55:27.865Z,98038.59
2022-09-10T04:57:32.792Z,98043.84
2022-09-10T04:59:40.694Z,98037.00
2022-09-10T05:01:45.904Z,98037.97
2022-09-10T05:03:50.854Z,98041.84
2022-09-10T05:05:56.768Z,98035.75
2022-09-10T05:08:02.118Z,98048.78
2022-09-10T05:10:10.958Z,98046.06
2022-09-10T05:12:16.167Z,98050.25
2022-09-10T05:14:20.968Z,98046.06
2022-09-10T05:16:28.612Z,98047.22
2022-09-10T05:18:33.730Z,98059.09
2022-09-10T05:20:38.520Z,98055.31
2022-09-10T05:22:43.354Z,98055.09
2022-09-10T05:24:48.196Z,98061.59
2022-09-10T05:26:53.030Z,98060.56
2022-09-10T05:28:59.862Z,98061.31
2022-09-10T05:31:09.720Z,98064.03
2022-09-10T05:33:18.072Z,98069.59
2022-09-10T05:35:23.554Z,98068.03
2022-09-10T05:37:28.347Z,98068.66
2022-09-10T05:39:33.272Z,98065.81
2022-09-10T05:41:38.119Z,98065.28
2022-09-10T05:43:43.118Z,98058.88
2022-09-10T05:45:49.006Z,98061.91
2022-09-10T05:47:54.215Z,98065.47
2022-09-10T05:50:03.572Z,98069.34
2022-09-10T05:52:09.629Z,98062.25
2022-09-10T05:54:14.666Z,98058.66
2022-09-10T05:56:20.646Z,98062.25
2022-09-10T05:58:25.408Z,98057.25
2022-09-10T06:00:30.452Z,98066.09
2022-09-10T06:02:38.696Z,98068.72
2022-09-10T06:04:44.246Z,98069.47
2022-09-10T06:06:51.649Z,98066.44
2022-09-10T06:08:57.120Z,98065.59
2022-09-10T06:11:25.563Z,98066.66
2022-09-10T06:13:30.379Z,98071.78
2022-09-10T06:15:37.970Z,98069.81
2022-09-10T06:17:42.980Z,98074.03
2022-09-10T06:19:48.292Z,98072.84
2022-09-10T06:22:00.714Z,98072.53
2022-09-10T06:24:07.397Z,98076.97
2022-09-10T06:26:17.146Z,98079.69
2022-09-10T06:28:22.602Z,98086.59
2022-09-10T06:30:27.485Z,98078.09
2022-09-10T06:32:32.430Z,98083.66
2022-09-10T06:34:38.900Z,98080.94
2022-09-10T06:36:45.706Z,98079.78
2022-09-10T06:38:53.423Z,98082.69
2022-09-10T06:41:00.793Z,98081.34
2022-09-10T06:43:11.917Z,98082.34
2022-09-10T06:45:42.208Z,98079.63
2022-09-10T06:50:31.055Z,98083.19
2022-09-10T06:52:37.768Z,98083.31
2022-09-10T06:54:48.256Z,98077.47
2022-09-10T06:57:11.477Z,98083.59
2022-09-10T06:59:18.382Z,98079.72
2022-09-10T07:01:26.451Z,98082.66
2022-09-10T07:03:33.940Z,98083.06
2022-09-10T07:05:38.870Z,98082.13
2022-09-10T07:07:43.767Z,98087.28
2022-09-10T07:09:51.270Z,98077.53
2022-09-10T07:11:57.590Z,98074.47
2022-09-10T07:14:03.094Z,98074.22
2022-09-10T07:16:10.577Z,98074.41
2022-09-10T07:18:16.478Z,98074.28
2022-09-10T07:20:23.555Z,98080.56
2022-09-10T07:22:28.914Z,98085.25
2022-09-10T07:24:35.087Z,98083.97
2022-09-10T07:27:00.631Z,98082.38
2022-09-10T07:29:06.287Z,98082.75
2022-09-10T07:31:17.020Z,98086.22
2022-09-10T07:33:23.213Z,98091.38
2022-09-10T07:35:28.623Z,98089.84
2022-09-10T07:37:33.727Z,98089.72
2022-09-10T07:39:40.589Z,98104.13
2022-09-10T07:41:46.641Z,98098.16
2022-09-10T07:43:58.652Z,98090.84
2022-09-10T07:46:08.098Z,98100.41
2022-09-10T07:48:14.292Z,98103.09
2022-09-10T07:50:19.262Z,98100.31
2022-09-10T07:52:28.088Z,98102.63
2022-09-10T07:54:34.068Z,98111.63
2022-09-10T07:56:38.790Z,98106.59
2022-09-10T07:58:46.052Z,98103.69
2022-09-10T08:00:54.195Z,98111.34
2022-09-10T08:02:59.313Z,98109.09
2022-09-10T08:05:04.361Z,98110.97
2022-09-10T08:07:10.876Z,98116.38
2022-09-10T08:09:19.432Z,98117.09
2022-09-10T08:11:29.782Z,98120.06
2022-09-10T08:13:34.843Z,98123.19
2022-09-10T08:15:44.766Z,98123.31
2022-09-10T08:17:52.480Z,98127.50
2022-09-10T08:19:59.901Z,98130.03
2022-09-10T08:22:04.643Z,98126.44
2022-09-10T08:24:16.155Z,98136.47
2022-09-10T08:26:26.994Z,98134.81
2022-09-10T08:28:35.325Z,98131.44
2022-09-10T08:30:42.660Z,98134.44
2022-09-10T08:32:47.938Z,98144.09
2022-09-10T08:34:56.001Z,98145.44
2022-09-10T08:37:00.825Z,98143.78
2022-09-10T08:39:08.371Z,98143.81
2022-09-10T08:41:21.917Z,98140.38
2022-09-10T08:43:33.908Z,98147.22
2022-09-10T08:45:41.694Z,98150.72
2022-09-10T08:47:56.114Z,98142.91
2022-09-10T08:50:11.739Z,98146.09
2022-09-10T08:52:22.893Z,98150.06
2022-09-10T08:54:34.320Z,98153.56
2022-09-10T08:56:39.138Z,98163.13
2022-09-10T08:58:46.863Z,98161.44
2022-09-10T09:00:58.801Z,98167.50
2022-09-10T09:03:13.782Z,98164.69
2022-09-10T09:05:25.910Z,98163.63
2022-09-10T09:07:39.397Z,98166.88
2022-09-10T09:09:46.266Z,98167.00
2022-09-10T09:12:01.098Z,98167.72
2022-09-10T09:14:33.607Z,98169.88
2022-09-10T09:16:55.121Z,98163.75
2022-09-10T09:19:10.727Z,98167.19
2022-09-10T09:21:20.610Z,98165.50
2022-09-10T09:23:28.366Z,98156.88
2022-09-10T09:25:39.281Z,98171.63
2022-09-10T09:27:44.697Z,98161.56
2022-09-10T09:29:56.114Z,98164.91
2022-09-10T09:32:06.047Z,98159.16
2022-09-10T09:34:19.618Z,98160.09
2022-09-10T09:36:32.916Z,98155.19
2022-09-10T09:38:41.394Z,98153.50
2022-09-10T09:40:52.273Z,98145.06
2022-09-10T09:43:02.315Z,98146.16
2022-09-10T09:45:19.845Z,98145.56
2022-09-10T09:47:24.797Z,98129.69
2022-09-10T09:49:31.911Z,98140.09
2022-09-10T09:51:40.681Z,98130.88
2022-09-10T09:53:48.962Z,98122.66
2022-09-10T09:55:57.616Z,98134.00
2022-09-10T09:58:30.618Z,98128.34
2022-09-10T10:00:38.117Z,98128.22
2022-09-10T10:02:44.417Z,98138.84
2022-09-10T10:05:07.231Z,98126.78
2022-09-10T10:07:14.730Z,98137.16
2022-09-10T10:09:23.253Z,98140.72
2022-09-10T10:11:50.321Z,98145.53
2022-09-10T10:13:55.117Z,98153.16
2022-09-10T10:16:16.347Z,98157.34
2022-09-10T10:18:32.591Z,98143.22
2022-09-10T10:20:41.887Z,98143.38
2022-09-10T10:22:50.139Z,98152.06
2022-09-10T10:24:55.911Z,98155.06
2022-09-10T10:27:01.439Z,98157.75
2022-09-10T10:29:09.886Z,98163.25
2022-09-10T10:31:16.021Z,98163.50
2022-09-10T10:33:22.244Z,98169.00
2022-09-10T10:35:49.944Z,98170.34
2022-09-10T10:38:16.045Z,98163.78
2022-09-10T10:40:26.583Z,98161.38
2022-09-10T10:42:37.659Z,98160.78
2022-09-10T10:45:02.427Z,98163.06
2022-09-10T10:47:25.482Z,98153.34
2022-09-10T10:49:52.205Z,98146.09
2022-09-10T10:52:07.855Z,98152.06
2022-09-10T10:54:24.093Z,98157.91
2022-09-10T10:56:36.136Z,98156.09
2022-09-10T10:59:07.279Z,98150.94
2022-09-10T11:01:18.282Z,98136.88
2022-09-10T11:03:28.042Z,98135.97
2022-09-10T11:05:38.439Z,98129.66
2022-09-10T11:07:46.801Z,98127.34
2022-09-10T11:09:59.108Z,98127.22
2022-09-10T11:12:07.950Z,98129.22
2022-09-10T11:14:24.145Z,98113.47
2022-09-10T11:16:40.294Z,98109.28
2022-09-10T11:18:50.313Z,98112.03
2022-09-10T11:21:03.321Z,98105.66
2022-09-10T11:23:18.628Z,98105.09
2022-09-10T11:25:31.799Z,98102.06
2022-09-10T11:27:51.164Z,98101.31
2022-09-10T11:30:01.388Z,98095.00
2022-09-10T11:32:09.644Z,98101.94
2022-09-10T11:34:22.641Z,98087.72
2022-09-10T11:36:34.009Z,98088.53
2022-09-10T11:38:49.608Z,98092.63
2022-09-10T11:41:03.258Z,98092.25
2022-09-10T11:43:14.331Z,98096.78
2022-09-10T11:45:25.263Z,98085.38
2022-09-10T11:47:37.777Z,98079.03
2022-09-10T11:49:51.327Z,98077.47
2022-09-10T11:51:57.075Z,98081.34
2022-09-10T11:54:03.859Z,98074.84
2022-09-10T11:56:41.216Z,98067.59
2022-09-10T11:58:57.497Z,98070.38
2022-09-10T12:01:11.705Z,98070.88
2022-09-10T12:03:48.033Z,98065.47
2022-09-10T12:06:02.412Z,98069.09
2022-09-10T12:08:14.904Z,98066.38
2022-09-10T12:10:25.752Z,98062.75
2022-09-10T12:12:41.148Z,98057.78
2022-09-10T12:14:45.981Z,98049.56
2022-09-10T12:16:54.700Z,98061.69
2022-09-10T12:19:01.770Z,98051.69
2022-09-10T12:21:11.481Z,98055.50
2022-09-10T12:23:21.069Z,98055.66
2022-09-10T12:25:33.960Z,98051.06
2022-09-10T12:27:53.538Z,98039.34
2022-09-10T12:29:58.272Z,98038.56
2022-09-10T12:32:33.060Z,98037.72
2022-09-10T12:34:38.509Z,98030.91
2022-09-10T12:37:19.902Z,98032.72
2022-09-10T12:39:27.472Z,98024.25
2022-09-10T12:42:01.104Z,98022.41
2022-09-10T12:44:34.361Z,98017.81
2022-09-10T12:46:44.754Z,98028.94
2022-09-10T12:48:51.693Z,98024.88
2022-09-10T12:51:00.656Z,98020.25
2022-09-10T12:53:34.475Z,98007.94
2022-09-10T12:55:46.306Z,98008.97
2022-09-10T12:58:02.657Z,98011.53
2022-09-10T13:00:22.215Z,97998.63
2022-09-10T13:02:34.003Z,98009.63
2022-09-10T13:04:42.091Z,97991.94
2022-09-10T13:06:47.758Z,97998.56
2022-09-10T13:08:53.878Z,97999.44
2022-09-10T13:11:16.434Z,97994.44
2022-09-10T13:13:38.926Z,97989.63
2022-09-10T13:15:53.706Z,97983.38
2022-09-10T13:18:29.384Z,97982.56
2022-09-10T13:20:35.980Z,97978.88
2022-09-10T13:23:06.029Z,97977.22
2022-09-10T13:25:29.257Z,97979.03
2022-09-10T13:27:43.686Z,97975.97
2022-09-10T13:29:50.542Z,97985.72
2022-09-10T13:32:04.927Z,97980.69
2022-09-10T13:34:41.275Z,97984.56
2022-09-10T13:36:55.377Z,97983.81
2022-09-10T13:39:16.659Z,97987.00
2022-09-10T13:41:45.880Z,97988.97
2022-09-10T13:44:06.019Z,97988.78
2022-09-10T13:46:16.100Z,97996.91
2022-09-10T13:48:28.280Z,97993.56
2022-09-10T13:50:39.613Z,97996.97
2022-09-10T13:52:48.692Z,97986.03
2022-09-10T13:54:57.242Z,97990.97
2022-09-10T13:57:07.274Z,97980.44
2022-09-10T13:59:23.617Z,97981.03
2022-09-10T14:01:51.196Z,97975.16
2022-09-10T14:03:58.683Z,97995.53
2022-09-10T14:06:05.410Z,97969.56
2022-09-10T14:08:15.433Z,97984.13
2022-09-10T14:10:20.757Z,97980.91
2022-09-10T14:12:30.126Z,97986.09
2022-09-10T14:14:41.126Z,97983.56
2022-09-10T14:16:52.018Z,97985.22
2022-09-10T14:19:02.979Z,97984.13
2022-09-10T14:21:08.656Z,97990.13
2022-09-10T14:23:18.068Z,97990.16
2022-09-10T14:25:32.277Z,97993.25
2022-09-10T14:27:39.067Z,98000.91
2022-09-10T14:29:44.302Z,98001.09
2022-09-10T14:31:49.257Z,98002.78
2022-09-10T14:33:54.167Z,97999.38
2022-09-10T14:36:16.365Z,98004.66
2022-09-10T14:38:29.417Z,97998.03
2022-09-10T14:40:39.919Z,97996.88
2022-09-10T14:42:44.808Z,97995.94
2022-09-10T14:44:49.568Z,97993.94
2022-09-10T14:46:57.561Z,97994.47
2022-09-10T14:49:11.240Z,97984.91
2022-09-10T14:51:22.071Z,97977.09
2022-09-10T14:53:26.814Z,97987.34
2022-09-10T14:55:34.824Z,97987.06
2022-09-10T14:57:41.379Z,97984.50
2022-09-10T14:59:47.666Z,97987.19
2022-09-10T15:01:53.133Z,97983.31
2022-09-10T15:03:58.023Z,97977.81
2022-09-10T15:06:02.768Z,97981.72
2022-09-10T15:08:10.138Z,97977.97
2022-09-10T15:10:15.079Z,97977.28
2022-09-10T15:12:25.101Z,97983.94
2022-09-10T15:14:29.995Z,97983.00
2022-09-10T15:16:35.219Z,98000.06
2022-09-10T15:18:40.173Z,97997.94
2022-09-10T15:20:45.087Z,98013.44
2022-09-10T15:22:49.843Z,98013.41
2022-09-10T15:25:10.144Z,98011.22
2022-09-10T15:27:15.766Z,98014.63
2022-09-10T15:29:20.672Z,98011.59
2022-09-10T15:31:30.706Z,98013.75
2022-09-10T15:33:37.407Z,98008.56
2022-09-10T15:35:42.207Z,98019.47
2022-09-10T15:37:46.982Z,98024.41
2022-09-10T15:39:52.602Z,98030.69
2022-09-10T15:42:00.029Z,98036.53
2022-09-10T15:44:06.103Z,98033.69
2022-09-10T15:46:11.174Z,98034.94
2022-09-10T15:48:16.465Z,98039.38
2022-09-10T15:50:21.199Z,98030.28
2022-09-10T15:52:26.484Z,98038.19
2022-09-10T15:54:32.534Z,98042.00
2022-09-10T15:56:37.492Z,98038.28
2022-09-10T15:58:50.074Z,98039.13
2022-09-10T16:00:55.438Z,98035.31
2022-09-10T16:03:01.959Z,98036.41
2022-09-10T16:05:07.577Z,98028.34
2022-09-10T16:07:12.407Z,98024.63
2022-09-10T16:09:17.273Z,98025.78
2022-09-10T16:11:22.837Z,98016.78
2022-09-10T16:13:28.711Z,98014.41
2022-09-10T16:15:37.982Z,98022.81
2022-09-10T16:17:42.688Z,98019.94
2022-09-10T16:19:47.501Z,98020.31
2022-09-10T16:21:53.133Z,98011.91
2022-09-10T16:23:59.529Z,98017.44
2022-09-10T16:26:06.060Z,98018.50
2022-09-10T16:28:10.963Z,98024.88
2022-09-10T16:30:16.066Z,98017.44
2022-09-10T16:32:23.795Z,98018.25
2022-09-10T16:34:28.578Z,98027.97
2022-09-10T16:36:34.749Z,98034.47
2022-09-10T16:38:40.074Z,98036.47
2022-09-10T16:40:45.644Z,98042.75
2022-09-10T16:42:50.416Z,98033.13
2022-09-10T16:44:55.233Z,98039.97
2022-09-10T16:47:00.675Z,98041.19
2022-09-10T16:49:09.295Z,98043.69
2022-09-10T16:51:16.546Z,98043.47
2022-09-10T16:53:21.354Z,98039.28
2022-09-10T16:55:26.120Z,98043.91
2022-09-10T16:57:31.006Z,98039.97
2022-09-10T16:59:35.775Z,98044.06
2022-09-10T17:01:40.644Z,98050.16
2022-09-10T17:03:47.968Z,98046.78
2022-09-10T17:05:56.947Z,98055.59
2022-09-10T17:08:01.691Z,98058.09
2022-09-10T17:10:06.802Z,98055.78
2022-09-10T17:12:11.789Z,98052.31
2022-09-10T17:14:16.602Z,98055.69
2022-09-10T17:16:28.152Z,98055.78
2022-09-10T17:18:32.945Z,98053.41
2022-09-10T17:20:37.997Z,98055.09
2022-09-10T17:22:45.361Z,98057.75
2022-09-10T17:24:50.871Z,98052.94
2022-09-10T17:26:56.933Z,98054.09
2022-09-10T17:29:03.427Z,98058.28
2022-09-10T17:31:08.801Z,98062.50
2022-09-10T17:33:13.714Z,98063.56
2022-09-10T17:35:18.542Z,98064.41
2022-09-10T17:37:24.497Z,98058.88
2022-09-10T17:39:32.111Z,98063.66
2022-09-10T17:41:36.889Z,98065.81
2022-09-10T17:43:41.818Z,98064.84
2022-09-10T17:45:46.665Z,98064.34
2022-09-10T17:47:51.413Z,98073.53
2022-09-10T17:49:56.559Z,98069.19
2022-09-10T17:52:01.486Z,98077.03
2022-09-10T17:54:08.393Z,98080.00
2022-09-10T17:56:17.594Z,98084.78
2022-09-10T17:58:23.072Z,98077.59
2022-09-10T18:00:28.522Z,98086.53
2022-09-10T18:02:33.507Z,98098.41
2022-09-10T18:04:38.285Z,98090.38
2022-09-10T18:06:43.873Z,98089.53
2022-09-10T18:08:48.831Z,98094.41
2022-09-10T18:11:05.806Z,98086.84
2022-09-10T18:13:13.374Z,98090.44
2022-09-10T18:15:19.683Z,98091.13
2022-09-10T18:17:24.509Z,98098.34
2022-09-10T18:19:29.259Z,98100.09
2022-09-10T18:21:35.561Z,98088.25
2022-09-10T18:23:41.355Z,98089.19
2022-09-10T18:25:49.835Z,98091.28
2022-09-10T18:27:55.637Z,98087.34
2022-09-10T18:30:04.166Z,98095.25
2022-09-10T18:32:09.862Z,98099.00
2022-09-10T18:34:22.116Z,98102.16
2022-09-10T18:36:29.032Z,98102.34
2022-09-10T18:38:33.910Z,98103.91
2022-09-10T18:40:39.362Z,98105.66
2022-09-10T18:42:46.722Z,98100.91
2022-09-10T18:44:51.670Z,98104.50
2022-09-10T18:46:59.516Z,98101.50
2022-09-10T18:49:05.309Z,98105.31
2022-09-10T18:51:12.932Z,98111.50
2022-09-10T18:53:18.400Z,98115.63
2022-09-10T18:55:23.211Z,98113.75
2022-09-10T18:57:27.921Z,98116.09
2022-09-10T18:59:32.763Z,98113.81
2022-09-10T19:01:39.228Z,98114.34
2022-09-10T19:03:48.403Z,98113.72
2022-09-10T19:05:53.133Z,98115.91
2022-09-10T19:07:58.785Z,98115.56
2022-09-10T19:10:04.581Z,98129.81
2022-09-10T19:12:09.898Z,98125.31
2022-09-10T19:14:19.286Z,98117.06
2022-09-10T19:16:26.807Z,98131.09
2022-09-10T19:18:32.595Z,98128.66
2022-09-10T19:20:41.946Z,98138.56
2022-09-10T19:22:46.788Z,98129.00
2022-09-10T19:24:56.155Z,98139.44
2022-09-10T19:27:01.262Z,98141.38
2022-09-10T19:29:07.493Z,98147.81
2022-09-10T19:31:15.480Z,98141.38
2022-09-10T19:33:21.488Z,98135.94
2022-09-10T19:35:27.193Z,98133.41
2022-09-10T19:37:35.087Z,98131.53
2022-09-10T19:39:40.134Z,98129.41
2022-09-10T19:41:46.642Z,98132.78
2022-09-10T19:43:53.727Z,98131.94
2022-09-10T19:45:58.996Z,98137.50
2022-09-10T19:48:03.850Z,98139.09
2022-09-10T19:50:09.094Z,98137.81
2022-09-10T19:52:14.845Z,98142.25
2022-09-10T19:54:22.800Z,98138.88
2022-09-10T19:56:32.315Z,98144.56
2022-09-10T19:58:38.330Z,98144.56
2022-09-10T20:00:47.080Z,98143.00
2022-09-10T20:02:53.769Z,98144.84
2022-09-10T20:04:58.826Z,98147.56
2022-09-10T20:07:03.835Z,98139.78
2022-09-10T20:09:10.934Z,98148.69
2022-09-10T20:11:21.737Z,98139.41
2022-09-10T20:13:26.500Z,98144.13
2022-09-10T20:15:31.532Z,98138.41
2022-09-10T20:17:36.303Z,98138.50
2022-09-10T20:19:41.095Z,98142.94
2022-09-10T20:21:46.549Z,98139.69
2022-09-10T20:23:55.647Z,98149.72
2022-09-10T20:26:10.608Z,98148.56
2022-09-10T20:28:17.975Z,98148.03
2022-09-10T20:30:22.812Z,98150.06
2022-09-10T20:32:27.988Z,98155.13
2022-09-10T20:34:32.531Z,98159.66
2022-09-10T20:36:38.973Z,98164.50
2022-09-10T20:38:44.256Z,98158.94
2022-09-10T20:40:49.063Z,98156.38
2022-09-10T20:42:55.070Z,98158.94
2022-09-10T20:45:02.746Z,98156.16
2022-09-10T20:47:08.186Z,98153.84
2022-09-10T20:49:14.090Z,98149.84
2022-09-10T20:51:20.247Z,98156.69
2022-09-10T20:53:25.431Z,98153.91
2022-09-10T20:55:30.393Z,98166.63
2022-09-10T20:57:35.480Z,98158.16
2022-09-10T20:59:40.303Z,98160.69
2022-09-10T21:01:50.738Z,98164.41
2022-09-10T21:03:58.065Z,98162.53
2022-09-10T21:06:02.793Z,98162.44
2022-09-10T21:08:08.208Z,98165.47
2022-09-10T21:10:13.129Z,98162.81
2022-09-10T21:12:17.847Z,98165.25
2022-09-10T21:14:22.638Z,98165.63
2022-09-10T21:16:28.710Z,98162.06
2022-09-10T21:18:36.661Z,98164.06
2022-09-10T21:20:41.506Z,98157.44
2022-09-10T21:22:46.408Z,98151.13
2022-09-10T21:24:51.146Z,98151.22
2022-09-10T21:26:56.431Z,98159.94
2022-09-10T21:29:02.235Z,98153.22
2022-09-10T21:31:07.422Z,98154.91
2022-09-10T21:33:12.011Z,98149.84
2022-09-10T21:35:19.376Z,98151.34
2022-09-10T21:37:25.480Z,98158.16
2022-09-10T21:39:30.386Z,98155.63
2022-09-10T21:41:36.952Z,98155.53
2022-09-10T21:43:45.521Z,98160.59
2022-09-10T21:45:50.640Z,98157.81
2022-09-10T21:47:55.182Z,98158.88
2022-09-10T21:49:59.940Z,98153.00
2022-09-10T21:52:08.449Z,98163.44
2022-09-10T21:54:18.742Z,98165.31
2022-09-10T21:56:24.916Z,98161.94
2022-09-10T21:58:31.480Z,98164.38
2022-09-10T22:00:36.452Z,98162.34
2022-09-10T22:02:42.202Z,98165.84
2022-09-10T22:04:46.973Z,98156.16
2022-09-10T22:06:52.000Z,98152.47
2022-09-10T22:09:01.590Z,98161.19
2022-09-10T22:11:14.273Z,98166.47
2022-09-10T22:13:19.066Z,98163.09
2022-09-10T22:15:23.823Z,98167.50
2022-09-10T22:17:28.642Z,98156.38
2022-09-10T22:19:33.377Z,98161.50
2022-09-10T22:21:38.946Z,98167.50
2022-09-10T22:23:43.940Z,98158.03
2022-09-10T22:25:51.280Z,98166.56
2022-09-10T22:27:58.364Z,98161.28
2022-09-10T22:30:04.979Z,98161.28
2022-09-10T22:32:12.471Z,98163.00
2022-09-10T22:34:19.261Z,98163.81
2022-09-10T22:36:26.609Z,98161.41
2022-09-10T22:38:31.415Z,98162.25
2022-09-10T22:40:36.475Z,98161.41
2022-09-10T22:42:43.852Z,98157.22
2022-09-10T22:44:48.938Z,98158.28
2022-09-10T22:46:53.422Z,98164.19
2022-09-10T22:48:58.982Z,98158.09
2022-09-10T22:51:03.827Z,98158.09
2022-09-10T22:53:08.555Z,98159.88
2022-09-10T22:55:13.382Z,98161.91
2022-09-10T22:57:18.268Z,98166.09
2022-09-10T22:59:28.034Z,98163.56
2022-09-10T23:01:36.661Z,98165.28
2022-09-10T23:03:42.031Z,98169.16
2022-09-10T23:05:46.919Z,98166.53
2022-09-10T23:07:52.764Z,98172.22
2022-09-10T23:09:57.467Z,98171.69
2022-09-10T23:12:02.278Z,98171.88
2022-09-10T23:14:09.342Z,98182.00
2022-09-10T23:16:20.169Z,98173.25
2022-09-10T23:18:25.010Z,98177.13
2022-09-10T23:20:30.245Z,98169.66
2022-09-10T23:22:34.705Z,98177.00
2022-09-10T23:24:39.623Z,98174.09
2022-09-10T23:26:45.383Z,98180.47
2022-09-10T23:28:50.957Z,98179.09
2022-09-10T23:30:55.824Z,98178.47
2022-09-10T23:33:03.174Z,98168.81
2022-09-10T23:35:09.527Z,98175.75
2022-09-10T23:37:14.275Z,98174.94
2022-09-10T23:39:20.932Z,98170.84
2022-09-10T23:41:25.803Z,98169.44
2022-09-10T23:43:31.238Z,98167.56
2022-09-10T23:45:35.713Z,98161.47
2022-09-10T23:47:40.806Z,98166.34
2022-09-10T23:49:48.113Z,98160.13
2022-09-10T23:51:53.298Z,98157.28
2022-09-10T23:53:59.150Z,98151.81
2022-09-10T23:56:04.932Z,98150.97
2022-09-10T23:58:09.664Z,98154.56
